Archival Weather

Tokyo Intl

Tokyo Intl, Japan (RJTT)

Report from: Friday, June 24, 2022 4:00 AM JST
Current time: Tuesday, August 16, 2022 4:10 PM JST

Current weather
Weather history
Weather forecast

Temperature23.0°C (73.4°F)
Dew point22.0°C (71.6°F)
Winds 10 kts (5.1 m/s, 11.5 mph) South (190°)
Visibility6.2 mi. (10 km)
Clouds Few clouds 400 ft. (122 m)
Ceiling: Broken clouds 700 ft. (213 m)
Broken clouds 1,500 ft. (457 m)
Altimeter29.77 in.Hg (1008 mB)
Relative humidity94 %
Density altitude1,464 ft. (446 m)
Remarks No significant changes expected in the next two hours
Flight conditions Instrument Meteorological Conditions
Raw dataRJTT 231900Z 19010KT 9999 FEW004 BKN007 BKN015 23/22 Q1008 NOSIG RMK 1ST004 6ST007 7ST015 A2979
An error has occurred. This application may no longer respond until reloaded. Reload 🗙